sensor_id;sensor_type;location;lat;lon;timestamp;P1;durP1;ratioP1;P2;durP2;ratioP2
23747;SDS011;12054;53.662;10.126;2023-07-31T00:02:23;8.27;;;2.35;;
23747;SDS011;12054;53.662;10.126;2023-07-31T00:04:48;5.70;;;1.90;;
23747;SDS011;12054;53.662;10.126;2023-07-31T00:07:14;3.80;;;1.90;;
23747;SDS011;12054;53.662;10.126;2023-07-31T00:09:39;4.50;;;2.00;;
23747;SDS011;12054;53.662;10.126;2023-07-31T00:12:05;3.08;;;1.75;;
23747;SDS011;12054;53.662;10.126;2023-07-31T00:14:31;5.25;;;2.13;;
23747;SDS011;12054;53.662;10.126;2023-07-31T00:16:56;5.93;;;2.33;;
23747;SDS011;12054;53.662;10.126;2023-07-31T00:19:22;4.57;;;2.03;;
23747;SDS011;12054;53.662;10.126;2023-07-31T00:21:47;4.03;;;2.13;;
23747;SDS011;12054;53.662;10.126;2023-07-31T00:24:13;4.30;;;2.08;;
23747;SDS011;12054;53.662;10.126;2023-07-31T00:26:38;4.72;;;2.03;;
23747;SDS011;12054;53.662;10.126;2023-07-31T00:29:04;3.28;;;1.60;;
23747;SDS011;12054;53.662;10.126;2023-07-31T00:31:29;6.20;;;2.33;;
23747;SDS011;12054;53.662;10.126;2023-07-31T00:33:55;3.58;;;2.35;;
23747;SDS011;12054;53.662;10.126;2023-07-31T00:36:20;5.15;;;2.42;;
23747;SDS011;12054;53.662;10.126;2023-07-31T00:38:46;5.10;;;2.17;;
23747;SDS011;12054;53.662;10.126;2023-07-31T00:41:11;3.63;;;2.42;;
23747;SDS011;12054;53.662;10.126;2023-07-31T00:43:37;6.15;;;2.28;;
23747;SDS011;12054;53.662;10.126;2023-07-31T00:46:02;3.40;;;1.83;;
23747;SDS011;12054;53.662;10.126;2023-07-31T00:48:28;5.95;;;2.17;;
23747;SDS011;12054;53.662;10.126;2023-07-31T00:50:54;7.57;;;2.50;;
23747;SDS011;12054;53.662;10.126;2023-07-31T00:53:19;5.70;;;2.40;;
23747;SDS011;12054;53.662;10.126;2023-07-31T00:55:45;4.72;;;2.13;;
23747;SDS011;12054;53.662;10.126;2023-07-31T00:58:11;5.00;;;1.90;;
23747;SDS011;12054;53.662;10.126;2023-07-31T01:00:36;5.28;;;2.25;;
23747;SDS011;12054;53.662;10.126;2023-07-31T01:03:02;4.70;;;2.20;;
23747;SDS011;12054;53.662;10.126;2023-07-31T01:05:32;4.95;;;2.22;;
23747;SDS011;12054;53.662;10.126;2023-07-31T01:08:12;7.53;;;2.22;;
23747;SDS011;12054;53.662;10.126;2023-07-31T01:10:53;5.88;;;2.10;;
23747;SDS011;12054;53.662;10.126;2023-07-31T01:13:24;6.22;;;2.20;;
23747;SDS011;12054;53.662;10.126;2023-07-31T01:15:49;7.50;;;2.40;;
23747;SDS011;12054;53.662;10.126;2023-07-31T01:18:15;4.45;;;2.28;;
23747;SDS011;12054;53.662;10.126;2023-07-31T01:20:41;10.35;;;3.65;;
23747;SDS011;12054;53.662;10.126;2023-07-31T01:23:13;4.97;;;2.15;;
23747;SDS011;12054;53.662;10.126;2023-07-31T01:26:18;6.07;;;2.40;;
23747;SDS011;12054;53.662;10.126;2023-07-31T01:28:52;4.90;;;2.35;;
23747;SDS011;12054;53.662;10.126;2023-07-31T01:31:25;5.75;;;2.35;;
23747;SDS011;12054;53.662;10.126;2023-07-31T01:33:53;5.90;;;2.33;;
23747;SDS011;12054;53.662;10.126;2023-07-31T01:36:21;5.25;;;2.22;;
23747;SDS011;12054;53.662;10.126;2023-07-31T01:38:48;4.78;;;2.03;;
23747;SDS011;12054;53.662;10.126;2023-07-31T01:41:16;4.30;;;2.10;;
23747;SDS011;12054;53.662;10.126;2023-07-31T01:43:42;8.00;;;2.33;;
23747;SDS011;12054;53.662;10.126;2023-07-31T01:46:07;5.10;;;2.28;;
23747;SDS011;12054;53.662;10.126;2023-07-31T01:48:33;6.20;;;2.38;;
23747;SDS011;12054;53.662;10.126;2023-07-31T01:51:00;4.82;;;2.30;;
23747;SDS011;12054;53.662;10.126;2023-07-31T01:53:26;5.07;;;2.10;;
23747;SDS011;12054;53.662;10.126;2023-07-31T01:55:52;6.18;;;2.80;;
23747;SDS011;12054;53.662;10.126;2023-07-31T01:58:17;5.68;;;2.40;;
23747;SDS011;12054;53.662;10.126;2023-07-31T02:00:43;6.70;;;2.47;;
23747;SDS011;12054;53.662;10.126;2023-07-31T02:03:08;8.40;;;2.47;;
23747;SDS011;12054;53.662;10.126;2023-07-31T02:05:34;7.43;;;2.40;;
23747;SDS011;12054;53.662;10.126;2023-07-31T02:07:59;5.57;;;2.70;;
23747;SDS011;12054;53.662;10.126;2023-07-31T02:10:25;8.10;;;2.80;;
23747;SDS011;12054;53.662;10.126;2023-07-31T02:12:50;8.10;;;2.83;;
23747;SDS011;12054;53.662;10.126;2023-07-31T02:15:16;9.63;;;2.53;;
23747;SDS011;12054;53.662;10.126;2023-07-31T02:17:41;7.80;;;3.00;;
23747;SDS011;12054;53.662;10.126;2023-07-31T02:20:07;4.65;;;2.42;;
23747;SDS011;12054;53.662;10.126;2023-07-31T02:22:33;5.43;;;2.60;;
23747;SDS011;12054;53.662;10.126;2023-07-31T02:24:58;6.60;;;2.90;;
23747;SDS011;12054;53.662;10.126;2023-07-31T02:27:24;5.65;;;2.90;;
23747;SDS011;12054;53.662;10.126;2023-07-31T02:29:52;7.78;;;3.10;;
23747;SDS011;12054;53.662;10.126;2023-07-31T02:32:17;7.22;;;3.35;;
23747;SDS011;12054;53.662;10.126;2023-07-31T02:34:43;5.22;;;2.47;;
23747;SDS011;12054;53.662;10.126;2023-07-31T02:37:08;8.55;;;3.00;;
23747;SDS011;12054;53.662;10.126;2023-07-31T02:39:34;5.20;;;2.50;;
23747;SDS011;12054;53.662;10.126;2023-07-31T02:41:59;7.53;;;2.90;;
23747;SDS011;12054;53.662;10.126;2023-07-31T02:44:25;7.20;;;3.05;;
23747;SDS011;12054;53.662;10.126;2023-07-31T02:46:51;8.50;;;3.00;;
23747;SDS011;12054;53.662;10.126;2023-07-31T02:49:16;7.43;;;3.03;;
23747;SDS011;12054;53.662;10.126;2023-07-31T02:51:42;9.32;;;2.55;;
23747;SDS011;12054;53.662;10.126;2023-07-31T02:54:07;5.50;;;2.90;;
23747;SDS011;12054;53.662;10.126;2023-07-31T02:56:33;7.45;;;3.80;;
23747;SDS011;12054;53.662;10.126;2023-07-31T02:58:58;4.78;;;2.55;;
23747;SDS011;12054;53.662;10.126;2023-07-31T03:01:23;8.25;;;3.20;;
23747;SDS011;12054;53.662;10.126;2023-07-31T03:03:49;5.97;;;2.80;;
23747;SDS011;12054;53.662;10.126;2023-07-31T03:06:15;4.18;;;2.70;;
23747;SDS011;12054;53.662;10.126;2023-07-31T03:08:40;6.43;;;3.17;;
23747;SDS011;12054;53.662;10.126;2023-07-31T03:11:06;6.97;;;2.72;;
23747;SDS011;12054;53.662;10.126;2023-07-31T03:13:31;7.20;;;3.55;;
23747;SDS011;12054;53.662;10.126;2023-07-31T03:15:57;8.10;;;2.90;;
23747;SDS011;12054;53.662;10.126;2023-07-31T03:18:22;8.00;;;3.03;;
23747;SDS011;12054;53.662;10.126;2023-07-31T03:20:48;6.38;;;2.78;;
23747;SDS011;12054;53.662;10.126;2023-07-31T03:23:13;5.03;;;2.88;;
23747;SDS011;12054;53.662;10.126;2023-07-31T03:25:39;6.28;;;2.97;;
23747;SDS011;12054;53.662;10.126;2023-07-31T03:28:06;5.10;;;2.78;;
23747;SDS011;12054;53.662;10.126;2023-07-31T03:30:32;5.30;;;3.03;;
23747;SDS011;12054;53.662;10.126;2023-07-31T03:33:00;4.97;;;2.78;;
23747;SDS011;12054;53.662;10.126;2023-07-31T03:35:25;5.13;;;2.50;;
23747;SDS011;12054;53.662;10.126;2023-07-31T03:37:51;4.60;;;2.70;;
23747;SDS011;12054;53.662;10.126;2023-07-31T03:40:16;8.05;;;3.00;;
23747;SDS011;12054;53.662;10.126;2023-07-31T03:42:41;8.82;;;2.80;;
23747;SDS011;12054;53.662;10.126;2023-07-31T03:45:07;6.03;;;2.83;;
23747;SDS011;12054;53.662;10.126;2023-07-31T03:47:33;4.60;;;2.70;;
23747;SDS011;12054;53.662;10.126;2023-07-31T03:50:02;4.22;;;2.70;;
23747;SDS011;12054;53.662;10.126;2023-07-31T03:52:28;6.13;;;3.13;;
23747;SDS011;12054;53.662;10.126;2023-07-31T03:54:53;6.18;;;2.80;;
23747;SDS011;12054;53.662;10.126;2023-07-31T03:57:19;6.63;;;2.90;;
23747;SDS011;12054;53.662;10.126;2023-07-31T03:59:44;6.22;;;2.88;;
23747;SDS011;12054;53.662;10.126;2023-07-31T04:02:10;5.40;;;3.28;;
23747;SDS011;12054;53.662;10.126;2023-07-31T04:04:35;4.45;;;2.95;;
23747;SDS011;12054;53.662;10.126;2023-07-31T04:07:00;3.67;;;2.70;;
23747;SDS011;12054;53.662;10.126;2023-07-31T04:09:26;6.60;;;3.20;;
23747;SDS011;12054;53.662;10.126;2023-07-31T04:11:51;5.88;;;3.42;;
23747;SDS011;12054;53.662;10.126;2023-07-31T04:14:17;5.80;;;3.30;;
23747;SDS011;12054;53.662;10.126;2023-07-31T04:16:42;6.00;;;3.55;;
23747;SDS011;12054;53.662;10.126;2023-07-31T04:19:08;7.07;;;3.72;;
23747;SDS011;12054;53.662;10.126;2023-07-31T04:21:35;6.45;;;3.40;;
23747;SDS011;12054;53.662;10.126;2023-07-31T04:24:00;5.50;;;3.22;;
23747;SDS011;12054;53.662;10.126;2023-07-31T04:26:26;5.35;;;3.38;;
23747;SDS011;12054;53.662;10.126;2023-07-31T04:28:51;4.75;;;3.08;;
23747;SDS011;12054;53.662;10.126;2023-07-31T04:31:17;5.05;;;3.22;;
23747;SDS011;12054;53.662;10.126;2023-07-31T04:33:42;4.22;;;3.17;;
23747;SDS011;12054;53.662;10.126;2023-07-31T04:36:08;4.13;;;3.30;;
23747;SDS011;12054;53.662;10.126;2023-07-31T04:38:33;5.95;;;3.30;;
23747;SDS011;12054;53.662;10.126;2023-07-31T04:40:59;4.80;;;3.15;;
23747;SDS011;12054;53.662;10.126;2023-07-31T04:43:25;3.15;;;2.78;;
23747;SDS011;12054;53.662;10.126;2023-07-31T04:45:51;3.63;;;2.85;;
23747;SDS011;12054;53.662;10.126;2023-07-31T04:48:18;3.25;;;2.92;;
23747;SDS011;12054;53.662;10.126;2023-07-31T04:50:44;3.60;;;3.05;;
23747;SDS011;12054;53.662;10.126;2023-07-31T04:53:09;4.38;;;3.00;;
23747;SDS011;12054;53.662;10.126;2023-07-31T04:55:35;3.85;;;3.00;;
23747;SDS011;12054;53.662;10.126;2023-07-31T04:58:00;3.17;;;2.75;;
23747;SDS011;12054;53.662;10.126;2023-07-31T05:00:26;5.47;;;3.40;;
23747;SDS011;12054;53.662;10.126;2023-07-31T05:02:51;3.40;;;2.85;;
23747;SDS011;12054;53.662;10.126;2023-07-31T05:05:17;3.83;;;2.78;;
23747;SDS011;12054;53.662;10.126;2023-07-31T05:07:42;3.13;;;2.42;;
23747;SDS011;12054;53.662;10.126;2023-07-31T05:10:08;3.55;;;2.20;;
23747;SDS011;12054;53.662;10.126;2023-07-31T05:12:34;3.00;;;2.33;;
23747;SDS011;12054;53.662;10.126;2023-07-31T05:14:59;3.50;;;2.10;;
23747;SDS011;12054;53.662;10.126;2023-07-31T05:17:25;3.78;;;2.25;;
23747;SDS011;12054;53.662;10.126;2023-07-31T05:19:50;3.28;;;2.40;;
23747;SDS011;12054;53.662;10.126;2023-07-31T05:22:16;2.20;;;2.00;;
23747;SDS011;12054;53.662;10.126;2023-07-31T05:24:41;2.10;;;1.80;;
23747;SDS011;12054;53.662;10.126;2023-07-31T05:27:07;2.92;;;2.28;;
23747;SDS011;12054;53.662;10.126;2023-07-31T05:29:32;3.03;;;2.10;;
23747;SDS011;12054;53.662;10.126;2023-07-31T05:31:58;4.45;;;2.28;;
23747;SDS011;12054;53.662;10.126;2023-07-31T05:34:23;2.45;;;2.25;;
23747;SDS011;12054;53.662;10.126;2023-07-31T05:36:48;3.38;;;2.70;;
23747;SDS011;12054;53.662;10.126;2023-07-31T05:39:14;2.40;;;2.20;;
23747;SDS011;12054;53.662;10.126;2023-07-31T05:41:41;2.55;;;2.35;;
23747;SDS011;12054;53.662;10.126;2023-07-31T05:44:06;2.50;;;2.25;;
23747;SDS011;12054;53.662;10.126;2023-07-31T05:46:32;2.88;;;2.55;;
23747;SDS011;12054;53.662;10.126;2023-07-31T05:48:58;2.83;;;2.20;;
23747;SDS011;12054;53.662;10.126;2023-07-31T05:51:25;3.47;;;2.00;;
23747;SDS011;12054;53.662;10.126;2023-07-31T05:53:51;2.53;;;2.00;;
23747;SDS011;12054;53.662;10.126;2023-07-31T05:56:17;2.85;;;2.35;;
23747;SDS011;12054;53.662;10.126;2023-07-31T05:58:42;2.55;;;2.13;;
23747;SDS011;12054;53.662;10.126;2023-07-31T06:01:08;2.38;;;2.00;;
23747;SDS011;12054;53.662;10.126;2023-07-31T06:03:34;2.78;;;2.00;;
23747;SDS011;12054;53.662;10.126;2023-07-31T06:06:00;4.82;;;2.38;;
23747;SDS011;12054;53.662;10.126;2023-07-31T06:08:25;2.22;;;2.03;;
23747;SDS011;12054;53.662;10.126;2023-07-31T06:10:50;3.47;;;1.88;;
23747;SDS011;12054;53.662;10.126;2023-07-31T06:13:16;2.47;;;2.00;;
23747;SDS011;12054;53.662;10.126;2023-07-31T06:15:41;2.47;;;2.20;;
23747;SDS011;12054;53.662;10.126;2023-07-31T06:18:07;2.03;;;1.85;;
23747;SDS011;12054;53.662;10.126;2023-07-31T06:20:35;1.98;;;1.80;;
23747;SDS011;12054;53.662;10.126;2023-07-31T06:23:01;2.85;;;2.22;;
23747;SDS011;12054;53.662;10.126;2023-07-31T06:25:27;2.20;;;2.00;;
23747;SDS011;12054;53.662;10.126;2023-07-31T06:27:53;3.97;;;1.98;;
23747;SDS011;12054;53.662;10.126;2023-07-31T06:30:19;2.75;;;2.15;;
23747;SDS011;12054;53.662;10.126;2023-07-31T06:32:44;3.00;;;2.63;;
23747;SDS011;12054;53.662;10.126;2023-07-31T06:35:10;3.53;;;2.67;;
23747;SDS011;12054;53.662;10.126;2023-07-31T06:37:35;3.60;;;2.60;;
23747;SDS011;12054;53.662;10.126;2023-07-31T06:40:02;4.03;;;2.80;;
23747;SDS011;12054;53.662;10.126;2023-07-31T06:42:30;3.05;;;2.75;;
23747;SDS011;12054;53.662;10.126;2023-07-31T06:44:55;4.28;;;2.80;;
23747;SDS011;12054;53.662;10.126;2023-07-31T06:47:21;3.05;;;2.80;;
23747;SDS011;12054;53.662;10.126;2023-07-31T06:49:46;3.63;;;2.65;;
23747;SDS011;12054;53.662;10.126;2023-07-31T06:52:12;3.85;;;3.08;;
23747;SDS011;12054;53.662;10.126;2023-07-31T06:54:37;3.08;;;2.70;;
23747;SDS011;12054;53.662;10.126;2023-07-31T06:57:03;3.00;;;2.70;;
23747;SDS011;12054;53.662;10.126;2023-07-31T06:59:29;3.15;;;2.45;;
23747;SDS011;12054;53.662;10.126;2023-07-31T07:01:54;2.70;;;2.50;;
23747;SDS011;12054;53.662;10.126;2023-07-31T07:04:20;2.40;;;2.20;;
23747;SDS011;12054;53.662;10.126;2023-07-31T07:06:45;2.40;;;2.13;;
23747;SDS011;12054;53.662;10.126;2023-07-31T07:09:11;2.67;;;2.47;;
23747;SDS011;12054;53.662;10.126;2023-07-31T07:11:36;3.47;;;2.20;;
23747;SDS011;12054;53.662;10.126;2023-07-31T07:14:02;2.17;;;1.98;;
23747;SDS011;12054;53.662;10.126;2023-07-31T07:16:28;2.45;;;2.25;;
23747;SDS011;12054;53.662;10.126;2023-07-31T07:18:53;3.67;;;2.20;;
23747;SDS011;12054;53.662;10.126;2023-07-31T07:21:19;2.85;;;2.20;;
23747;SDS011;12054;53.662;10.126;2023-07-31T07:23:45;2.38;;;2.17;;
23747;SDS011;12054;53.662;10.126;2023-07-31T07:26:10;2.28;;;2.05;;
23747;SDS011;12054;53.662;10.126;2023-07-31T07:28:36;4.07;;;2.42;;
23747;SDS011;12054;53.662;10.126;2023-07-31T07:31:02;2.78;;;2.10;;
23747;SDS011;12054;53.662;10.126;2023-07-31T07:33:28;3.15;;;1.88;;
23747;SDS011;12054;53.662;10.126;2023-07-31T07:35:53;1.63;;;1.52;;
23747;SDS011;12054;53.662;10.126;2023-07-31T07:38:19;1.85;;;1.73;;
23747;SDS011;12054;53.662;10.126;2023-07-31T07:40:45;1.85;;;1.70;;
23747;SDS011;12054;53.662;10.126;2023-07-31T07:43:16;2.05;;;1.90;;
23747;SDS011;12054;53.662;10.126;2023-07-31T07:45:42;1.70;;;1.50;;
23747;SDS011;12054;53.662;10.126;2023-07-31T07:48:07;2.28;;;1.60;;
23747;SDS011;12054;53.662;10.126;2023-07-31T07:50:33;1.80;;;1.70;;
23747;SDS011;12054;53.662;10.126;2023-07-31T07:52:58;2.08;;;1.60;;
23747;SDS011;12054;53.662;10.126;2023-07-31T07:55:24;2.15;;;1.38;;
23747;SDS011;12054;53.662;10.126;2023-07-31T07:57:49;1.77;;;1.55;;
23747;SDS011;12054;53.662;10.126;2023-07-31T08:00:15;1.40;;;1.23;;
23747;SDS011;12054;53.662;10.126;2023-07-31T08:02:42;1.65;;;1.55;;
23747;SDS011;12054;53.662;10.126;2023-07-31T08:05:08;1.50;;;1.38;;
23747;SDS011;12054;53.662;10.126;2023-07-31T08:07:33;1.60;;;1.50;;
23747;SDS011;12054;53.662;10.126;2023-07-31T08:09:59;1.40;;;1.30;;
23747;SDS011;12054;53.662;10.126;2023-07-31T08:12:24;1.80;;;1.65;;
23747;SDS011;12054;53.662;10.126;2023-07-31T08:14:51;1.73;;;1.63;;
23747;SDS011;12054;53.662;10.126;2023-07-31T08:17:17;1.60;;;1.50;;
23747;SDS011;12054;53.662;10.126;2023-07-31T08:19:42;2.60;;;1.75;;
23747;SDS011;12054;53.662;10.126;2023-07-31T08:22:08;1.90;;;1.75;;
23747;SDS011;12054;53.662;10.126;2023-07-31T08:24:34;2.05;;;1.85;;
23747;SDS011;12054;53.662;10.126;2023-07-31T08:27:00;2.97;;;2.00;;
23747;SDS011;12054;53.662;10.126;2023-07-31T08:29:25;1.88;;;1.77;;
23747;SDS011;12054;53.662;10.126;2023-07-31T08:31:51;3.15;;;1.70;;
23747;SDS011;12054;53.662;10.126;2023-07-31T08:34:16;2.33;;;2.13;;
23747;SDS011;12054;53.662;10.126;2023-07-31T08:36:42;2.42;;;1.85;;
23747;SDS011;12054;53.662;10.126;2023-07-31T08:39:07;2.15;;;1.95;;
23747;SDS011;12054;53.662;10.126;2023-07-31T08:41:37;2.45;;;2.25;;
23747;SDS011;12054;53.662;10.126;2023-07-31T08:44:04;3.60;;;2.53;;
23747;SDS011;12054;53.662;10.126;2023-07-31T08:46:30;2.50;;;2.30;;
23747;SDS011;12054;53.662;10.126;2023-07-31T08:48:57;2.67;;;2.47;;
23747;SDS011;12054;53.662;10.126;2023-07-31T08:51:24;3.65;;;2.28;;
23747;SDS011;12054;53.662;10.126;2023-07-31T08:53:49;4.28;;;2.53;;
23747;SDS011;12054;53.662;10.126;2023-07-31T08:56:15;2.67;;;2.42;;
23747;SDS011;12054;53.662;10.126;2023-07-31T08:58:42;3.60;;;2.83;;
23747;SDS011;12054;53.662;10.126;2023-07-31T09:01:09;2.55;;;2.30;;
23747;SDS011;12054;53.662;10.126;2023-07-31T09:03:35;3.55;;;2.80;;
23747;SDS011;12054;53.662;10.126;2023-07-31T09:06:02;2.75;;;2.55;;
23747;SDS011;12054;53.662;10.126;2023-07-31T09:08:31;2.25;;;2.05;;
23747;SDS011;12054;53.662;10.126;2023-07-31T09:10:59;3.15;;;2.40;;
23747;SDS011;12054;53.662;10.126;2023-07-31T09:13:28;3.03;;;2.50;;
23747;SDS011;12054;53.662;10.126;2023-07-31T09:15:55;2.45;;;2.25;;
23747;SDS011;12054;53.662;10.126;2023-07-31T09:18:20;1.95;;;1.60;;
23747;SDS011;12054;53.662;10.126;2023-07-31T09:21:00;1.80;;;1.70;;
23747;SDS011;12054;53.662;10.126;2023-07-31T09:23:26;1.70;;;1.60;;
23747;SDS011;12054;53.662;10.126;2023-07-31T09:26:34;2.75;;;1.60;;
23747;SDS011;12054;53.662;10.126;2023-07-31T09:29:00;1.48;;;1.38;;
23747;SDS011;12054;53.662;10.126;2023-07-31T09:31:47;1.50;;;1.30;;
23747;SDS011;12054;53.662;10.126;2023-07-31T09:34:13;1.52;;;1.42;;
23747;SDS011;12054;53.662;10.126;2023-07-31T09:36:41;1.27;;;1.13;;
23747;SDS011;12054;53.662;10.126;2023-07-31T09:39:11;1.23;;;1.13;;
23747;SDS011;12054;53.662;10.126;2023-07-31T09:41:38;2.00;;;1.10;;
23747;SDS011;12054;53.662;10.126;2023-07-31T09:44:05;1.02;;;0.90;;
23747;SDS011;12054;53.662;10.126;2023-07-31T09:46:31;1.35;;;0.90;;
23747;SDS011;12054;53.662;10.126;2023-07-31T09:49:03;1.58;;;1.10;;
23747;SDS011;12054;53.662;10.126;2023-07-31T09:51:30;1.10;;;1.00;;
23747;SDS011;12054;53.662;10.126;2023-07-31T09:53:56;1.77;;;0.90;;
23747;SDS011;12054;53.662;10.126;2023-07-31T09:56:21;1.30;;;1.20;;
23747;SDS011;12054;53.662;10.126;2023-07-31T09:58:48;2.67;;;1.15;;
23747;SDS011;12054;53.662;10.126;2023-07-31T10:01:15;1.17;;;1.08;;
23747;SDS011;12054;53.662;10.126;2023-07-31T10:03:40;1.50;;;1.05;;
23747;SDS011;12054;53.662;10.126;2023-07-31T10:06:09;1.35;;;1.00;;
23747;SDS011;12054;53.662;10.126;2023-07-31T10:08:35;1.00;;;0.90;;
23747;SDS011;12054;53.662;10.126;2023-07-31T10:11:02;1.08;;;0.98;;
23747;SDS011;12054;53.662;10.126;2023-07-31T10:13:29;1.73;;;1.13;;
23747;SDS011;12054;53.662;10.126;2023-07-31T10:15:58;1.17;;;1.08;;
23747;SDS011;12054;53.662;10.126;2023-07-31T10:18:25;2.00;;;1.00;;
23747;SDS011;12054;53.662;10.126;2023-07-31T10:20:51;1.40;;;1.10;;
23747;SDS011;12054;53.662;10.126;2023-07-31T10:23:17;1.10;;;1.00;;
23747;SDS011;12054;53.662;10.126;2023-07-31T10:25:43;1.35;;;1.10;;
23747;SDS011;12054;53.662;10.126;2023-07-31T10:28:10;2.13;;;1.00;;
23747;SDS011;12054;53.662;10.126;2023-07-31T10:30:37;1.75;;;1.10;;
23747;SDS011;12054;53.662;10.126;2023-07-31T10:33:04;1.20;;;0.80;;
23747;SDS011;12054;53.662;10.126;2023-07-31T10:35:31;1.65;;;0.93;;
23747;SDS011;12054;53.662;10.126;2023-07-31T10:37:56;1.25;;;0.90;;
23747;SDS011;12054;53.662;10.126;2023-07-31T10:40:35;0.88;;;0.80;;
23747;SDS011;12054;53.662;10.126;2023-07-31T10:43:01;2.15;;;0.80;;
23747;SDS011;12054;53.662;10.126;2023-07-31T10:45:41;1.55;;;1.00;;
23747;SDS011;12054;53.662;10.126;2023-07-31T10:48:14;1.65;;;0.95;;
23747;SDS011;12054;53.662;10.126;2023-07-31T10:50:48;1.92;;;0.88;;
23747;SDS011;12054;53.662;10.126;2023-07-31T10:53:31;1.25;;;0.80;;
23747;SDS011;12054;53.662;10.126;2023-07-31T10:56:07;1.13;;;0.88;;
23747;SDS011;12054;53.662;10.126;2023-07-31T10:58:34;1.05;;;0.88;;
23747;SDS011;12054;53.662;10.126;2023-07-31T11:01:01;0.80;;;0.80;;
23747;SDS011;12054;53.662;10.126;2023-07-31T11:06:14;1.08;;;0.70;;
23747;SDS011;12054;53.662;10.126;2023-07-31T11:08:44;1.95;;;0.63;;
23747;SDS011;12054;53.662;10.126;2023-07-31T11:11:12;0.90;;;0.57;;
23747;SDS011;12054;53.662;10.126;2023-07-31T11:13:40;1.10;;;0.80;;
23747;SDS011;12054;53.662;10.126;2023-07-31T11:16:16;1.40;;;0.75;;
23747;SDS011;12054;53.662;10.126;2023-07-31T11:18:43;0.77;;;0.75;;
23747;SDS011;12054;53.662;10.126;2023-07-31T11:21:14;1.20;;;0.52;;
23747;SDS011;12054;53.662;10.126;2023-07-31T11:23:41;0.90;;;0.40;;
23747;SDS011;12054;53.662;10.126;2023-07-31T11:26:10;0.47;;;0.45;;
23747;SDS011;12054;53.662;10.126;2023-07-31T11:28:36;0.50;;;0.45;;
23747;SDS011;12054;53.662;10.126;2023-07-31T11:31:03;0.80;;;0.40;;
23747;SDS011;12054;53.662;10.126;2023-07-31T11:33:30;0.85;;;0.40;;
23747;SDS011;12054;53.662;10.126;2023-07-31T11:35:56;0.47;;;0.30;;
23747;SDS011;12054;53.662;10.126;2023-07-31T11:38:22;2.53;;;0.40;;
23747;SDS011;12054;53.662;10.126;2023-07-31T11:40:49;1.55;;;0.30;;
23747;SDS011;12054;53.662;10.126;2023-07-31T11:43:15;1.25;;;0.40;;
23747;SDS011;12054;53.662;10.126;2023-07-31T11:45:49;2.05;;;0.50;;
23747;SDS011;12054;53.662;10.126;2023-07-31T11:48:19;2.15;;;0.63;;
23747;SDS011;12054;53.662;10.126;2023-07-31T11:50:47;0.45;;;0.30;;
23747;SDS011;12054;53.662;10.126;2023-07-31T11:53:14;0.50;;;0.35;;
23747;SDS011;12054;53.662;10.126;2023-07-31T11:55:42;0.30;;;0.30;;
23747;SDS011;12054;53.662;10.126;2023-07-31T11:58:08;1.60;;;0.50;;
23747;SDS011;12054;53.662;10.126;2023-07-31T12:00:34;0.40;;;0.32;;
23747;SDS011;12054;53.662;10.126;2023-07-31T12:03:00;0.52;;;0.40;;
23747;SDS011;12054;53.662;10.126;2023-07-31T12:05:26;3.00;;;0.60;;
23747;SDS011;12054;53.662;10.126;2023-07-31T12:07:53;1.08;;;0.30;;
23747;SDS011;12054;53.662;10.126;2023-07-31T12:10:26;0.40;;;0.20;;
23747;SDS011;12054;53.662;10.126;2023-07-31T12:12:57;0.40;;;0.30;;
23747;SDS011;12054;53.662;10.126;2023-07-31T12:15:39;0.32;;;0.32;;
23747;SDS011;12054;53.662;10.126;2023-07-31T12:18:07;0.55;;;0.40;;
23747;SDS011;12054;53.662;10.126;2023-07-31T12:20:34;0.32;;;0.32;;
23747;SDS011;12054;53.662;10.126;2023-07-31T12:23:00;0.73;;;0.40;;
23747;SDS011;12054;53.662;10.126;2023-07-31T12:25:30;0.93;;;0.40;;
23747;SDS011;12054;53.662;10.126;2023-07-31T12:27:57;0.88;;;0.40;;
23747;SDS011;12054;53.662;10.126;2023-07-31T12:30:29;1.17;;;0.40;;
23747;SDS011;12054;53.662;10.126;2023-07-31T12:32:58;0.70;;;0.40;;
23747;SDS011;12054;53.662;10.126;2023-07-31T12:35:34;0.30;;;0.30;;
23747;SDS011;12054;53.662;10.126;2023-07-31T12:38:01;0.57;;;0.40;;
23747;SDS011;12054;53.662;10.126;2023-07-31T12:40:27;0.38;;;0.30;;
23747;SDS011;12054;53.662;10.126;2023-07-31T12:42:52;0.63;;;0.50;;
23747;SDS011;12054;53.662;10.126;2023-07-31T12:45:18;0.50;;;0.40;;
23747;SDS011;12054;53.662;10.126;2023-07-31T12:47:45;0.60;;;0.40;;
23747;SDS011;12054;53.662;10.126;2023-07-31T12:50:11;1.77;;;0.50;;
23747;SDS011;12054;53.662;10.126;2023-07-31T12:52:37;0.50;;;0.40;;
23747;SDS011;12054;53.662;10.126;2023-07-31T12:55:02;1.92;;;0.60;;
23747;SDS011;12054;53.662;10.126;2023-07-31T12:57:29;0.35;;;0.35;;
23747;SDS011;12054;53.662;10.126;2023-07-31T12:59:55;1.10;;;0.68;;
23747;SDS011;12054;53.662;10.126;2023-07-31T13:02:21;1.13;;;0.50;;
23747;SDS011;12054;53.662;10.126;2023-07-31T13:04:46;0.45;;;0.45;;
23747;SDS011;12054;53.662;10.126;2023-07-31T13:07:12;1.42;;;0.65;;
23747;SDS011;12054;53.662;10.126;2023-07-31T13:09:37;0.70;;;0.60;;
23747;SDS011;12054;53.662;10.126;2023-07-31T13:12:03;0.43;;;0.43;;
23747;SDS011;12054;53.662;10.126;2023-07-31T13:14:29;0.40;;;0.40;;
23747;SDS011;12054;53.662;10.126;2023-07-31T13:16:54;0.32;;;0.30;;
23747;SDS011;12054;53.662;10.126;2023-07-31T13:19:20;1.52;;;0.50;;
23747;SDS011;12054;53.662;10.126;2023-07-31T13:21:45;0.77;;;0.50;;
23747;SDS011;12054;53.662;10.126;2023-07-31T13:24:11;1.08;;;0.52;;
23747;SDS011;12054;53.662;10.126;2023-07-31T13:26:36;0.77;;;0.50;;
23747;SDS011;12054;53.662;10.126;2023-07-31T13:29:02;0.93;;;0.50;;
23747;SDS011;12054;53.662;10.126;2023-07-31T13:31:27;0.70;;;0.60;;
23747;SDS011;12054;53.662;10.126;2023-07-31T13:33:53;0.77;;;0.50;;
23747;SDS011;12054;53.662;10.126;2023-07-31T13:36:18;1.27;;;0.43;;
23747;SDS011;12054;53.662;10.126;2023-07-31T13:38:44;0.57;;;0.45;;
23747;SDS011;12054;53.662;10.126;2023-07-31T13:41:09;0.40;;;0.30;;
23747;SDS011;12054;53.662;10.126;2023-07-31T13:43:35;1.23;;;0.60;;
23747;SDS011;12054;53.662;10.126;2023-07-31T13:46:01;1.00;;;0.40;;
23747;SDS011;12054;53.662;10.126;2023-07-31T13:48:31;0.30;;;0.30;;
23747;SDS011;12054;53.662;10.126;2023-07-31T13:50:59;1.17;;;0.50;;
23747;SDS011;12054;53.662;10.126;2023-07-31T13:53:25;1.90;;;0.47;;
23747;SDS011;12054;53.662;10.126;2023-07-31T13:55:50;0.43;;;0.30;;
23747;SDS011;12054;53.662;10.126;2023-07-31T13:58:17;0.68;;;0.50;;
23747;SDS011;12054;53.662;10.126;2023-07-31T14:00:43;0.40;;;0.30;;
23747;SDS011;12054;53.662;10.126;2023-07-31T14:03:09;0.50;;;0.30;;
23747;SDS011;12054;53.662;10.126;2023-07-31T14:05:34;0.63;;;0.50;;
23747;SDS011;12054;53.662;10.126;2023-07-31T14:08:00;0.30;;;0.30;;
23747;SDS011;12054;53.662;10.126;2023-07-31T14:10:26;1.30;;;0.40;;
23747;SDS011;12054;53.662;10.126;2023-07-31T14:12:51;1.27;;;0.60;;
23747;SDS011;12054;53.662;10.126;2023-07-31T14:15:17;0.60;;;0.40;;
23747;SDS011;12054;53.662;10.126;2023-07-31T14:17:42;1.35;;;0.40;;
23747;SDS011;12054;53.662;10.126;2023-07-31T14:20:08;1.00;;;0.50;;
23747;SDS011;12054;53.662;10.126;2023-07-31T14:22:34;1.70;;;0.40;;
23747;SDS011;12054;53.662;10.126;2023-07-31T14:24:59;1.02;;;0.35;;
23747;SDS011;12054;53.662;10.126;2023-07-31T14:27:25;0.60;;;0.40;;
23747;SDS011;12054;53.662;10.126;2023-07-31T14:29:51;0.32;;;0.30;;
23747;SDS011;12054;53.662;10.126;2023-07-31T14:32:16;1.65;;;0.43;;
23747;SDS011;12054;53.662;10.126;2023-07-31T14:34:42;0.88;;;0.38;;